createdAt,value
2018-12-29T00:00:34.209Z,98591.09
2018-12-29T00:03:42.832Z,98589.80
2018-12-29T00:06:57.100Z,98597.05
2018-12-29T00:10:04.063Z,98594.98
2018-12-29T00:13:11.087Z,98599.95
2018-12-29T00:16:17.959Z,98606.28
2018-12-29T00:19:25.892Z,98607.92
2018-12-29T00:22:34.646Z,98614.63
2018-12-29T00:26:01.504Z,98615.03
2018-12-29T00:29:19.038Z,98617.19
2018-12-29T00:32:22.882Z,98624.80
2018-12-29T00:35:31.108Z,98629.43
2018-12-29T00:38:38.042Z,98624.80
2018-12-29T00:41:46.809Z,98625.61
2018-12-29T00:45:02.749Z,98640.39
2018-12-29T00:48:11.581Z,98634.06
2018-12-29T00:51:18.820Z,98639.14
2018-12-29T00:54:26.486Z,98636.99
2018-12-29T00:57:33.452Z,98645.42
2018-12-29T01:00:40.139Z,98643.31
2018-12-29T01:03:46.850Z,98645.05
2018-12-29T01:06:53.794Z,98646.28
2018-12-29T01:10:00.568Z,98646.73
2018-12-29T01:13:07.469Z,98645.02
2018-12-29T01:16:15.075Z,98649.30
2018-12-29T01:19:22.155Z,98650.53
2018-12-29T01:22:29.075Z,98644.26
2018-12-29T01:25:35.915Z,98646.28
2018-12-29T01:28:42.795Z,98658.58
2018-12-29T01:31:49.809Z,98659.79
2018-12-29T01:34:56.818Z,98662.30
2018-12-29T01:38:13.010Z,98662.27
2018-12-29T01:41:39.828Z,98665.21
2018-12-29T01:44:46.828Z,98655.97
2018-12-29T01:47:53.592Z,98660.17
2018-12-29T01:51:00.544Z,98653.47
2018-12-29T01:54:10.226Z,98650.91
2018-12-29T01:57:16.932Z,98646.66
2018-12-29T02:00:23.944Z,98637.42
2018-12-29T02:03:30.791Z,98629.81
2018-12-29T02:06:37.799Z,98628.59
2018-12-29T02:09:44.466Z,98626.49
2018-12-29T02:12:51.379Z,98617.59
2018-12-29T02:15:58.090Z,98601.55
2018-12-29T02:19:05.336Z,98599.02
2018-12-29T02:22:12.332Z,98599.06
2018-12-29T02:25:19.294Z,98593.98
2018-12-29T02:28:26.195Z,98589.76
2018-12-29T02:31:32.939Z,98579.22
2018-12-29T02:34:40.110Z,98577.92
2018-12-29T02:37:46.974Z,98571.48
2018-12-29T02:40:53.698Z,98567.64
2018-12-29T02:44:00.413Z,98574.46
2018-12-29T02:47:07.520Z,98575.44
2018-12-29T02:50:14.451Z,98576.16
2018-12-29T02:53:21.370Z,98574.08
2018-12-29T02:56:28.077Z,98558.54
2018-12-29T02:59:35.260Z,98547.11
2018-12-29T03:02:42.262Z,98547.88
2018-12-29T03:05:49.142Z,98554.20
2018-12-29T03:08:56.074Z,98549.59
2018-12-29T03:12:03.454Z,98548.81
2018-12-29T03:15:10.193Z,98552.63
2018-12-29T03:18:17.968Z,98547.61
2018-12-29T03:21:25.151Z,98542.02
2018-12-29T03:24:32.063Z,98543.68
2018-12-29T03:27:38.799Z,98544.08
2018-12-29T03:30:46.050Z,98538.23
2018-12-29T03:33:52.832Z,98539.91
2018-12-29T03:36:59.731Z,98542.00
2018-12-29T03:40:07.663Z,98544.13
2018-12-29T03:43:14.568Z,98537.42
2018-12-29T03:46:21.738Z,98544.27
2018-12-29T03:49:29.100Z,98540.34
2018-12-29T03:52:36.277Z,98543.29
2018-12-29T03:55:42.980Z,98546.70
2018-12-29T03:58:50.053Z,98545.48
2018-12-29T04:01:56.987Z,98541.22
2018-12-29T04:05:03.952Z,98537.42
2018-12-29T04:08:13.953Z,98543.77
2018-12-29T04:11:20.989Z,98543.27
2018-12-29T04:14:27.698Z,98543.29
2018-12-29T04:17:34.507Z,98547.13
2018-12-29T04:20:41.597Z,98545.41
2018-12-29T04:23:48.894Z,98547.13
2018-12-29T04:26:55.908Z,98540.38
2018-12-29T04:30:02.626Z,98547.97
2018-12-29T04:33:09.349Z,98548.39
2018-12-29T04:36:16.451Z,98545.46
2018-12-29T04:39:23.396Z,98550.56
2018-12-29T04:42:30.691Z,98560.64
2018-12-29T04:45:37.408Z,98565.27
2018-12-29T04:48:47.012Z,98567.41
2018-12-29T04:51:54.001Z,98567.73
2018-12-29T04:55:00.735Z,98570.77
2018-12-29T04:58:07.456Z,98567.83
2018-12-29T05:01:14.457Z,98561.02
2018-12-29T05:04:21.364Z,98565.97
2018-12-29T05:07:28.319Z,98573.58
2018-12-29T05:10:35.215Z,98573.10
2018-12-29T05:13:42.350Z,98574.44
2018-12-29T05:16:49.307Z,98577.33
2018-12-29T05:19:56.248Z,98575.56
2018-12-29T05:23:04.247Z,98581.13
2018-12-29T05:26:11.895Z,98587.42
2018-12-29T05:29:18.824Z,98582.24
2018-12-29T05:32:26.040Z,98582.63
2018-12-29T05:35:32.725Z,98588.89
2018-12-29T05:38:39.732Z,98586.41
2018-12-29T05:41:47.870Z,98592.98
2018-12-29T05:44:55.221Z,98591.97
2018-12-29T05:48:02.117Z,98590.37
2018-12-29T05:51:09.141Z,98591.27
2018-12-29T05:54:16.328Z,98594.23
2018-12-29T05:57:23.071Z,98594.93
2018-12-29T06:00:29.989Z,98600.95
2018-12-29T06:03:39.880Z,98599.48
2018-12-29T06:06:46.828Z,98600.31
2018-12-29T06:09:54.073Z,98604.00
2018-12-29T06:13:00.795Z,98603.48
2018-12-29T06:16:07.779Z,98599.69
2018-12-29T06:19:14.696Z,98601.01
2018-12-29T06:22:21.653Z,98604.05
2018-12-29T06:25:28.905Z,98605.47
2018-12-29T06:28:35.956Z,98614.88
2018-12-29T06:31:42.862Z,98615.15
2018-12-29T06:34:49.758Z,98611.76
2018-12-29T06:37:56.438Z,98616.87
2018-12-29T06:41:03.692Z,98615.55
2018-12-29T06:44:10.400Z,98615.03
2018-12-29T06:47:17.199Z,98606.70
2018-12-29T06:50:23.954Z,98610.55
2018-12-29T06:53:30.680Z,98613.34
2018-12-29T06:56:37.375Z,98625.17
2018-12-29T06:59:44.128Z,98629.53
2018-12-29T07:02:50.837Z,98632.89
2018-12-29T07:05:58.236Z,98630.14
2018-12-29T07:09:06.620Z,98636.20
2018-12-29T07:12:26.510Z,98638.72
2018-12-29T07:15:33.385Z,98638.67
2018-12-29T07:18:40.109Z,98641.72
2018-12-29T07:21:46.795Z,98634.88
2018-12-29T07:24:53.999Z,98642.40
2018-12-29T07:28:01.098Z,98636.52
2018-12-29T07:31:08.369Z,98636.97
2018-12-29T07:34:15.359Z,98637.14
2018-12-29T07:37:22.619Z,98637.37
2018-12-29T07:40:31.305Z,98632.61
2018-12-29T07:43:38.469Z,98639.50
2018-12-29T07:46:49.641Z,98642.03
2018-12-29T07:49:53.895Z,98641.45
2018-12-29T07:53:01.031Z,98651.50
2018-12-29T07:56:08.032Z,98647.54
2018-12-29T07:59:15.371Z,98639.88
2018-12-29T08:02:22.250Z,98638.98
2018-12-29T08:05:29.314Z,98646.10
2018-12-29T08:11:51.823Z,98645.48
2018-12-29T08:14:58.879Z,98650.03
2018-12-29T08:18:07.522Z,98645.07
2018-12-29T08:21:14.332Z,98646.53
2018-12-29T08:24:39.648Z,98646.25
2018-12-29T08:27:46.610Z,98648.06
2018-12-29T08:30:53.310Z,98650.53
2018-12-29T08:34:01.864Z,98657.27
2018-12-29T08:37:08.921Z,98656.02
2018-12-29T08:40:15.898Z,98664.14
2018-12-29T08:43:22.870Z,98663.71
2018-12-29T08:46:29.983Z,98658.42
2018-12-29T08:49:36.794Z,98650.50
2018-12-29T08:52:43.499Z,98652.19
2018-12-29T08:55:50.438Z,98656.38
2018-12-29T08:58:57.478Z,98656.81
2018-12-29T09:02:04.701Z,98658.42
2018-12-29T09:05:11.418Z,98656.73
2018-12-29T09:08:18.145Z,98653.88
2018-12-29T09:11:25.005Z,98656.53
2018-12-29T09:14:31.940Z,98665.29
2018-12-29T09:17:38.894Z,98666.61
2018-12-29T09:20:46.712Z,98668.68
2018-12-29T09:23:56.237Z,98664.42
2018-12-29T09:27:03.167Z,98666.23
2018-12-29T09:30:10.021Z,98672.93
2018-12-29T09:33:17.049Z,98671.72
2018-12-29T09:36:24.022Z,98673.77
2018-12-29T09:39:30.946Z,98671.52
2018-12-29T09:42:37.839Z,98672.98
2018-12-29T09:45:44.637Z,98664.92
2018-12-29T09:48:51.280Z,98667.41
2018-12-29T09:52:00.222Z,98665.78
2018-12-29T09:55:07.244Z,98666.30
2018-12-29T09:58:15.051Z,98671.23
2018-12-29T10:01:22.263Z,98668.80
2018-12-29T10:04:29.427Z,98669.66
2018-12-29T10:07:36.605Z,98665.98
2018-12-29T10:10:43.542Z,98667.56
2018-12-29T10:13:50.675Z,98668.52
2018-12-29T10:16:57.513Z,98659.26
2018-12-29T10:20:04.464Z,98663.45
2018-12-29T10:23:11.476Z,98655.12
2018-12-29T10:26:19.401Z,98656.06
2018-12-29T10:29:26.442Z,98651.81
2018-12-29T10:32:33.425Z,98655.27
2018-12-29T10:35:40.353Z,98646.76
2018-12-29T10:38:47.578Z,98656.90
2018-12-29T10:41:54.612Z,98650.61
2018-12-29T10:45:12.167Z,98645.91
2018-12-29T10:48:21.082Z,98645.13
2018-12-29T10:51:27.776Z,98639.34
2018-12-29T10:54:34.534Z,98627.95
2018-12-29T10:57:46.723Z,98628.28
2018-12-29T11:00:53.696Z,98619.52
2018-12-29T11:04:00.671Z,98618.19
2018-12-29T11:07:07.699Z,98619.41
2018-12-29T11:10:17.245Z,98619.14
2018-12-29T11:13:26.603Z,98610.23
2018-12-29T11:16:34.513Z,98600.25
2018-12-29T11:19:41.586Z,98606.49
2018-12-29T11:22:48.614Z,98600.80
2018-12-29T11:25:56.502Z,98599.69
2018-12-29T11:29:03.709Z,98584.19
2018-12-29T11:32:10.704Z,98574.53
2018-12-29T11:35:17.628Z,98570.73
2018-12-29T11:38:24.587Z,98574.20
2018-12-29T11:41:32.142Z,98568.69
2018-12-29T11:44:39.099Z,98573.80
2018-12-29T11:47:49.892Z,98575.08
2018-12-29T11:50:55.099Z,98567.12
2018-12-29T11:54:01.810Z,98565.85
2018-12-29T11:57:08.618Z,98560.45
2018-12-29T12:00:15.414Z,98562.18
2018-12-29T12:03:22.309Z,98555.06
2018-12-29T12:06:30.890Z,98562.61
2018-12-29T12:09:37.949Z,98562.22
2018-12-29T12:12:44.923Z,98561.84
2018-12-29T12:15:54.338Z,98555.18
2018-12-29T12:19:03.029Z,98553.09
2018-12-29T12:22:11.712Z,98548.98
2018-12-29T12:25:18.452Z,98542.57
2018-12-29T12:28:25.676Z,98538.83
2018-12-29T12:31:32.661Z,98535.61
2018-12-29T12:34:39.814Z,98539.84
2018-12-29T12:37:47.424Z,98539.57
2018-12-29T12:40:54.746Z,98535.25
2018-12-29T12:44:02.092Z,98542.18
2018-12-29T12:47:08.913Z,98528.38
2018-12-29T12:50:15.681Z,98520.98
2018-12-29T12:53:23.137Z,98516.11
2018-12-29T12:56:33.150Z,98501.52
2018-12-29T12:59:40.276Z,98490.98
2018-12-29T13:02:47.192Z,98488.57
2018-12-29T13:05:54.136Z,98482.23
2018-12-29T13:09:05.667Z,98479.66
2018-12-29T13:12:12.674Z,98475.72
2018-12-29T13:15:19.603Z,98460.94
2018-12-29T13:18:26.650Z,98461.70
2018-12-29T13:21:33.689Z,98456.98
2018-12-29T13:24:40.530Z,98451.59
2018-12-29T13:27:47.486Z,98448.21
2018-12-29T13:30:54.432Z,98445.05
2018-12-29T13:34:01.618Z,98442.77
2018-12-29T13:37:09.472Z,98443.19
2018-12-29T13:40:18.456Z,98451.43
2018-12-29T13:43:25.560Z,98458.53
2018-12-29T13:46:32.843Z,98453.78
2018-12-29T13:49:39.941Z,98461.23
2018-12-29T13:52:48.171Z,98467.08
2018-12-29T13:56:20.257Z,98471.22
2018-12-29T13:59:27.228Z,98468.63
2018-12-29T14:02:49.345Z,98472.02
2018-12-29T14:05:59.443Z,98478.23
2018-12-29T14:09:07.811Z,98491.27
2018-12-29T14:12:15.626Z,98495.05
2018-12-29T14:15:22.905Z,98485.28
2018-12-29T14:18:29.765Z,98480.50
2018-12-29T14:21:40.683Z,98488.42
2018-12-29T14:24:45.793Z,98488.83
2018-12-29T14:27:52.923Z,98499.15
2018-12-29T14:30:59.894Z,98500.19
2018-12-29T14:34:06.851Z,98506.38
2018-12-29T14:37:15.771Z,98510.00
2018-12-29T14:40:22.409Z,98514.63
2018-12-29T14:43:29.436Z,98505.99
2018-12-29T14:46:36.716Z,98505.58
2018-12-29T14:49:45.411Z,98511.62
2018-12-29T14:52:52.147Z,98512.28
2018-12-29T14:55:58.820Z,98507.23
2018-12-29T14:59:11.966Z,98495.50
2018-12-29T15:02:19.171Z,98485.80
2018-12-29T15:05:26.169Z,98477.26
2018-12-29T15:08:34.367Z,98474.60
2018-12-29T15:13:20.924Z,98461.95
2018-12-29T15:16:47.606Z,98459.27
2018-12-29T15:20:03.519Z,98484.57
2018-12-29T15:23:23.461Z,98496.73
2018-12-29T15:28:51.897Z,98487.57
2018-12-29T15:32:03.037Z,98450.81
2018-12-29T15:35:09.998Z,98434.34
2018-12-29T15:38:17.152Z,98444.88
2018-12-29T15:41:24.533Z,98453.80
2018-12-29T15:44:32.336Z,98446.23
2018-12-29T15:47:40.004Z,98441.67
2018-12-29T15:50:48.230Z,98439.06
2018-12-29T15:53:54.991Z,98444.96
2018-12-29T15:57:02.077Z,98437.73
2018-12-29T16:00:10.281Z,98429.95
2018-12-29T16:03:17.051Z,98423.14
2018-12-29T16:06:24.459Z,98408.36
2018-12-29T16:09:31.518Z,98422.64
2018-12-29T16:12:41.277Z,98423.92
2018-12-29T16:15:51.178Z,98398.70
2018-12-29T16:18:59.443Z,98394.48
2018-12-29T16:22:07.531Z,98400.39
2018-12-29T16:25:14.336Z,98385.10
2018-12-29T16:28:21.461Z,98369.56
2018-12-29T16:31:28.760Z,98353.58
2018-12-29T16:34:37.356Z,98362.75
2018-12-29T16:37:44.689Z,98364.53
2018-12-29T16:40:57.782Z,98360.34
2018-12-29T16:44:01.274Z,98369.94
2018-12-29T16:47:08.374Z,98373.78
2018-12-29T16:50:16.023Z,98374.25
2018-12-29T16:53:29.101Z,98371.25
2018-12-29T16:56:31.782Z,98359.08
2018-12-29T16:59:39.250Z,98351.85
2018-12-29T17:02:46.293Z,98364.06
2018-12-29T17:05:53.432Z,98370.33
2018-12-29T17:09:00.255Z,98357.72
2018-12-29T17:12:07.353Z,98356.36
2018-12-29T17:15:14.246Z,98361.80
2018-12-29T17:18:22.705Z,98356.28
2018-12-29T17:21:29.753Z,98354.84
2018-12-29T17:24:36.828Z,98343.00
2018-12-29T17:27:46.197Z,98325.34
2018-12-29T17:30:59.084Z,98316.98
2018-12-29T17:34:06.601Z,98307.58
2018-12-29T17:37:13.307Z,98300.82
2018-12-29T17:40:20.598Z,98294.84
2018-12-29T17:43:27.429Z,98297.80
2018-12-29T17:46:34.171Z,98295.81
2018-12-29T17:49:42.070Z,98288.61
2018-12-29T17:52:49.780Z,98291.16
2018-12-29T17:55:57.361Z,98288.13
2018-12-29T17:59:04.644Z,98291.00
2018-12-29T18:02:11.662Z,98283.53
2018-12-29T18:05:18.815Z,98292.84
2018-12-29T18:08:26.141Z,98306.40
2018-12-29T18:11:33.098Z,98328.30
2018-12-29T18:14:40.358Z,98341.75
2018-12-29T18:17:47.196Z,98364.97
2018-12-29T18:20:54.212Z,98368.72
2018-12-29T18:24:01.284Z,98376.80
2018-12-29T18:27:08.347Z,98384.27
2018-12-29T18:30:15.202Z,98380.43
2018-12-29T18:33:22.367Z,98390.59
2018-12-29T18:36:29.748Z,98386.34
2018-12-29T18:39:36.884Z,98385.53
2018-12-29T18:42:44.122Z,98385.91
2018-12-29T18:45:50.960Z,98390.81
2018-12-29T18:48:58.008Z,98395.14
2018-12-29T18:52:04.945Z,98381.62
2018-12-29T18:55:12.420Z,98384.20
2018-12-29T18:58:20.615Z,98377.91
2018-12-29T19:01:28.705Z,98344.56
2018-12-29T19:04:35.711Z,98327.70
2018-12-29T19:07:42.948Z,98321.39
2018-12-29T19:10:49.941Z,98313.86
2018-12-29T19:13:58.692Z,98282.25
2018-12-29T19:17:05.475Z,98263.69
2018-12-29T19:20:13.181Z,98257.39
2018-12-29T19:23:20.308Z,98240.13
2018-12-29T19:26:27.848Z,98208.11
2018-12-29T19:29:35.093Z,98203.97
2018-12-29T19:32:42.695Z,98204.42
2018-12-29T19:35:49.962Z,98206.58
2018-12-29T19:38:57.898Z,98194.81
2018-12-29T19:42:04.938Z,98178.81
2018-12-29T19:45:12.241Z,98125.27
2018-12-29T19:48:20.371Z,98084.02
2018-12-29T19:51:27.766Z,98109.36
2018-12-29T19:54:34.523Z,98106.01
2018-12-29T19:57:42.440Z,98111.46
2018-12-29T20:00:49.911Z,98122.78
2018-12-29T20:03:57.125Z,98124.34
2018-12-29T20:07:04.131Z,98117.80
2018-12-29T20:10:11.275Z,98104.80
2018-12-29T20:13:19.475Z,98098.47
2018-12-29T20:16:26.581Z,98098.40
2018-12-29T20:19:33.714Z,98082.77
2018-12-29T20:22:41.131Z,98078.62
2018-12-29T20:25:48.388Z,98072.28
2018-12-29T20:28:57.098Z,98057.55
2018-12-29T20:32:04.006Z,98063.44
2018-12-29T20:35:11.012Z,98058.80
2018-12-29T20:38:18.225Z,98043.27
2018-12-29T20:41:26.229Z,98039.88
2018-12-29T20:44:33.243Z,98026.45
2018-12-29T20:47:40.526Z,98016.78
2018-12-29T20:50:47.601Z,98014.23
2018-12-29T20:53:54.658Z,98011.73
2018-12-29T20:57:01.410Z,98002.53
2018-12-29T21:00:11.070Z,97993.69
2018-12-29T21:03:19.142Z,97981.52
2018-12-29T21:06:27.164Z,97989.91
2018-12-29T21:09:33.959Z,97974.77
2018-12-29T21:12:41.170Z,97976.05
2018-12-29T21:15:48.800Z,97966.81
2018-12-29T21:18:55.929Z,97951.23
2018-12-29T21:22:03.004Z,97932.69
2018-12-29T21:25:10.341Z,97932.73
2018-12-29T21:28:17.134Z,97922.63
2018-12-29T21:31:24.367Z,97918.83
2018-12-29T21:34:32.461Z,97919.26
2018-12-29T21:37:39.883Z,97907.86
2018-12-29T21:40:46.725Z,97899.46
2018-12-29T21:43:53.464Z,97893.96
2018-12-29T21:47:00.486Z,97884.32
2018-12-29T21:50:08.422Z,97863.64
2018-12-29T21:53:15.619Z,97866.17
2018-12-29T21:56:22.720Z,97873.80
2018-12-29T21:59:29.700Z,97865.34
2018-12-29T22:02:37.520Z,97869.14
2018-12-29T22:05:44.426Z,97868.31
2018-12-29T22:08:51.578Z,97881.37
2018-12-29T22:11:58.364Z,97880.11
2018-12-29T22:15:08.932Z,97875.91
2018-12-29T22:18:19.038Z,97879.25
2018-12-29T22:21:26.723Z,97875.04
2018-12-29T22:24:33.488Z,97867.48
2018-12-29T22:27:40.979Z,97862.43
2018-12-29T22:30:48.046Z,97856.98
2018-12-29T22:33:54.936Z,97854.48
2018-12-29T22:37:02.731Z,97861.22
2018-12-29T22:40:10.138Z,97865.03
2018-12-29T22:43:17.227Z,97850.67
2018-12-29T22:46:24.106Z,97854.02
2018-12-29T22:49:31.109Z,97864.14
2018-12-29T22:52:38.238Z,97847.29
2018-12-29T22:55:45.335Z,97838.42
2018-12-29T22:58:52.251Z,97839.67
2018-12-29T23:02:05.835Z,97837.13
2018-12-29T23:05:14.823Z,97831.20
2018-12-29T23:08:22.101Z,97825.33
2018-12-29T23:11:29.732Z,97825.31
2018-12-29T23:14:36.986Z,97812.66
2018-12-29T23:17:44.325Z,97818.98
2018-12-29T23:20:51.965Z,97816.47
2018-12-29T23:24:00.003Z,97814.76
2018-12-29T23:27:07.090Z,97832.51
2018-12-29T23:30:14.267Z,97821.11
2018-12-29T23:33:21.562Z,97806.75
2018-12-29T23:36:28.615Z,97805.90
2018-12-29T23:39:35.636Z,97807.62
2018-12-29T23:42:42.675Z,97795.39
2018-12-29T23:45:49.699Z,97800.45
2018-12-29T23:48:56.532Z,97796.67
2018-12-29T23:52:03.309Z,97793.73
2018-12-29T23:55:10.120Z,97799.20
2018-12-29T23:58:17.650Z,97792.02
